LKTV weather

Public forecast

Using degrees Celsius for public forecast. Weather courtesy of forecast.io.

Closest aviation weather report (METAR) to Tabor Vsechov Ultralight Airport

Closest report is Kbely Air Base, 41.2 nm (76.2 km) N. Retrieved 2020/08/09 14:30 UTC (26 minutes ago):

LKKB 091430Z VRB02KT CAVOK 31/14 Q1017 NOSIG

Closest aviation forecast (TAF) to Tabor Vsechov Ultralight Airport

Closest forecast is Kbely Air Base, 41.2 nm (76.2 km) N. Retrieved 2020/08/09 12:00 UTC (3 hours ago):

TAF LKKB 091100Z 0912/1012 VRB02KT CAVOK TEMPO 0912/0917 09006KT SCT040TCU BECMG 1010/1012 06008KT SCT040TCU